Terminal Aerodrome Forecast
Issued by NWS Grand Rapids, MI

Home | Current Version | Previous Version | Text Only | Print | Product List | Glossary On
Versions: 1 2 3 4 5 6 7 8 9 10 11 12 13 14 15 16 17 18 19 20 21 22 23 24 25 26
000
FTUS43 KGRR 050541
TAFGRR
TAF
KGRR 050541Z 0506/0606 00000KT 2SM BR SCT003
      TEMPO 0506/0508 1/2SM FG BKN003
     FM050800 00000KT 3/4SM BR BKN003
     FM051300 23008KT P6SM VCTS BKN035CB
     FM060000 20003KT 6SM BR SKC=

USA.gov is the U.S. government's official web portal to all federal, state and local government web resources and services.